Time,TemperatureF,DewpointF,PressureIn,WindDirection,WindDirectionDegrees,WindSpeedMPH,WindSpeedGustMPH,Humidity,HourlyPrecipIn,Conditions,Clouds,dailyrainin,SoftwareType,DateUTC
2013-05-25 00:00:00,77.9,70.1,30.08,NW,318,0.0,0.0,77,0.00,,,0.00,Wunderground v.1.13,2013-05-25 04:00:00,
2013-05-25 00:02:00,77.9,70.1,30.08,NW,318,0.0,0.0,77,0.00,,,0.00,Wunderground v.1.13,2013-05-25 04:02:00,
2013-05-25 00:04:00,77.9,70.1,30.08,NW,318,0.0,0.0,77,0.00,,,0.00,Wunderground v.1.13,2013-05-25 04:04:00,
2013-05-25 00:06:00,77.8,70.0,30.08,NW,318,0.0,0.0,77,0.00,,,0.00,Wunderground v.1.13,2013-05-25 04:06:00,
2013-05-25 00:10:00,77.8,70.0,30.08,NW,318,0.0,0.0,77,0.00,,,0.00,Wunderground v.1.13,2013-05-25 04:10:00,
2013-05-25 00:16:00,77.8,70.4,30.07,NW,318,0.0,0.0,78,0.00,,,0.00,Wunderground v.1.13,2013-05-25 04:16:00,
2013-05-25 00:22:00,77.7,70.3,30.08,NW,318,0.0,0.0,78,0.00,,,0.00,Wunderground v.1.13,2013-05-25 04:22:00,
2013-05-25 00:28:00,77.7,70.7,30.08,NW,318,0.0,0.0,79,0.00,,,0.00,Wunderground v.1.13,2013-05-25 04:28:00,
2013-05-25 00:34:00,77.6,70.6,30.08,NW,318,0.0,0.0,79,0.00,,,0.00,Wunderground v.1.13,2013-05-25 04:34:00,
2013-05-25 00:40:00,77.5,70.5,30.08,NW,318,0.0,0.0,79,0.00,,,0.00,Wunderground v.1.13,2013-05-25 04:40:00,
2013-05-25 00:46:00,77.5,70.8,30.08,NW,318,0.0,0.0,80,0.00,,,0.00,Wunderground v.1.13,2013-05-25 04:46:00,
2013-05-25 00:52:00,77.5,70.8,30.08,NW,318,0.0,0.0,80,0.00,,,0.00,Wunderground v.1.13,2013-05-25 04:52:00,
2013-05-25 00:58:00,77.6,71.3,30.08,NW,319,0.0,0.0,81,0.00,,,0.00,Wunderground v.1.13,2013-05-25 04:58:00,
2013-05-25 01:04:00,77.7,71.4,30.08,NW,319,0.0,0.0,81,0.00,,,0.00,Wunderground v.1.13,2013-05-25 05:04:00,
2013-05-25 01:10:00,77.8,71.1,30.08,NNW,340,0.0,0.0,80,0.00,,,0.00,Wunderground v.1.13,2013-05-25 05:10:00,
2013-05-25 01:16:00,77.9,71.2,30.07,North,349,0.0,2.0,80,0.00,,,0.00,Wunderground v.1.13,2013-05-25 05:16:00,
2013-05-25 01:22:00,78.2,70.4,30.08,North,10,1.0,3.0,77,0.00,,,0.00,Wunderground v.1.13,2013-05-25 05:22:00,
2013-05-25 01:28:00,78.4,69.8,30.07,North,9,1.0,1.0,75,0.00,,,0.00,Wunderground v.1.13,2013-05-25 05:28:00,
2013-05-25 01:34:00,78.7,68.1,30.07,NNW,340,1.0,3.0,70,0.00,,,0.00,Wunderground v.1.13,2013-05-25 05:34:00,
2013-05-25 01:40:00,78.7,67.7,30.07,NNE,24,1.0,2.0,69,0.00,,,0.00,Wunderground v.1.13,2013-05-25 05:40:00,
2013-05-25 01:46:00,78.7,66.8,30.07,NE,48,0.0,2.0,67,0.00,,,0.00,Wunderground v.1.13,2013-05-25 05:46:00,
2013-05-25 01:52:00,78.8,66.0,30.07,NNE,32,2.0,4.0,65,0.00,,,0.00,Wunderground v.1.13,2013-05-25 05:52:00,
2013-05-25 01:58:00,78.8,66.5,30.07,NNE,14,2.0,5.0,66,0.00,,,0.00,Wunderground v.1.13,2013-05-25 05:58:00,
2013-05-25 02:04:00,78.6,67.2,30.07,NE,36,1.0,2.0,68,0.00,,,0.00,Wunderground v.1.13,2013-05-25 06:04:00,
2013-05-25 02:10:00,78.4,67.8,30.07,NE,38,1.0,9.0,70,0.00,,,0.00,Wunderground v.1.13,2013-05-25 06:10:00,
2013-05-25 02:16:00,78.0,68.2,30.07,NE,35,2.0,3.0,72,0.00,,,0.00,Wunderground v.1.13,2013-05-25 06:16:00,
2013-05-25 02:22:00,77.5,68.6,30.07,NE,40,1.0,10.0,74,0.00,,,0.00,Wunderground v.1.13,2013-05-25 06:22:00,
2013-05-25 02:28:00,77.1,68.6,30.07,ENE,65,1.0,10.0,75,0.00,,,0.00,Wunderground v.1.13,2013-05-25 06:28:00,
2013-05-25 02:34:00,76.8,68.7,30.07,NE,38,1.0,10.0,76,0.00,,,0.00,Wunderground v.1.13,2013-05-25 06:34:00,
2013-05-25 02:40:00,76.5,68.4,30.07,ENE,61,2.0,10.0,76,0.00,,,0.00,Wunderground v.1.13,2013-05-25 06:40:00,
2013-05-25 02:46:00,76.3,68.6,30.07,ENE,59,1.0,10.0,77,0.00,,,0.00,Wunderground v.1.13,2013-05-25 06:46:00,
2013-05-25 02:52:00,76.1,68.4,30.07,NE,55,1.0,10.0,77,0.00,,,0.00,Wunderground v.1.13,2013-05-25 06:52:00,
2013-05-25 02:58:00,75.9,68.5,30.07,NE,56,1.0,10.0,78,0.00,,,0.00,Wunderground v.1.13,2013-05-25 06:58:00,
2013-05-25 03:04:00,75.8,68.4,30.07,ENE,78,0.0,10.0,78,0.00,,,0.00,Wunderground v.1.13,2013-05-25 07:04:00,
2013-05-25 03:10:00,75.7,68.7,30.07,ENE,61,0.0,3.0,79,0.00,,,0.00,Wunderground v.1.13,2013-05-25 07:10:00,
2013-05-25 03:16:00,75.8,68.8,30.07,ENE,63,1.0,1.0,79,0.00,,,0.00,Wunderground v.1.13,2013-05-25 07:16:00,
2013-05-25 03:22:00,76.0,68.6,30.06,NE,53,2.0,8.0,78,0.00,,,0.00,Wunderground v.1.13,2013-05-25 07:22:00,
2013-05-25 03:28:00,76.4,68.7,30.06,ENE,74,4.0,7.0,77,0.00,,,0.00,Wunderground v.1.13,2013-05-25 07:28:00,
2013-05-25 03:34:00,76.6,68.5,30.06,ENE,75,4.0,11.0,76,0.00,,,0.00,Wunderground v.1.13,2013-05-25 07:34:00,
2013-05-25 03:40:00,76.8,68.7,30.06,ENE,59,3.0,7.0,76,0.00,,,0.00,Wunderground v.1.13,2013-05-25 07:40:00,
2013-05-25 03:46:00,76.8,68.3,30.06,ENE,71,2.0,7.0,75,0.00,,,0.00,Wunderground v.1.13,2013-05-25 07:46:00,
2013-05-25 03:52:00,76.9,68.0,30.06,ENE,76,5.0,7.0,74,0.00,,,0.00,Wunderground v.1.13,2013-05-25 07:52:00,
2013-05-25 03:58:00,76.9,68.4,30.06,ENE,69,5.0,7.0,75,0.00,,,0.00,Wunderground v.1.13,2013-05-25 07:58:00,
2013-05-25 04:04:00,76.8,67.9,30.06,ENE,67,5.0,7.0,74,0.00,,,0.00,Wunderground v.1.13,2013-05-25 08:04:00,
2013-05-25 04:10:00,76.8,67.9,30.06,East,84,3.0,5.0,74,0.00,,,0.00,Wunderground v.1.13,2013-05-25 08:10:00,
2013-05-25 04:16:00,76.9,67.6,30.06,ENE,77,3.0,5.0,73,0.00,,,0.00,Wunderground v.1.13,2013-05-25 08:16:00,
2013-05-25 04:22:00,76.9,67.6,30.06,NE,44,4.0,14.0,73,0.00,,,0.00,Wunderground v.1.13,2013-05-25 08:22:00,
2013-05-25 04:28:00,76.7,67.8,30.06,ENE,63,3.0,14.0,74,0.00,,,0.00,Wunderground v.1.13,2013-05-25 08:28:00,
2013-05-25 04:34:00,76.5,68.0,30.06,ENE,65,2.0,14.0,75,0.00,,,0.00,Wunderground v.1.13,2013-05-25 08:34:00,
2013-05-25 04:40:00,76.4,67.9,30.06,East,80,1.0,14.0,75,0.00,,,0.00,Wunderground v.1.13,2013-05-25 08:40:00,
2013-05-25 04:46:00,76.2,68.1,30.06,ENE,78,2.0,14.0,76,0.00,,,0.00,Wunderground v.1.13,2013-05-25 08:46:00,
2013-05-25 04:52:00,76.1,68.0,30.06,ENE,74,2.0,14.0,76,0.00,,,0.00,Wunderground v.1.13,2013-05-25 08:52:00,
2013-05-25 04:58:00,76.0,67.9,30.06,NE,55,2.0,5.0,76,0.00,,,0.00,Wunderground v.1.13,2013-05-25 08:58:00,
2013-05-25 05:04:00,75.9,68.2,30.07,ENE,72,3.0,14.0,77,0.00,,,0.00,Wunderground v.1.13,2013-05-25 09:04:00,
2013-05-25 05:10:00,75.8,68.1,30.06,ENE,74,1.0,4.0,77,0.00,,,0.00,Wunderground v.1.13,2013-05-25 09:10:00,
2013-05-25 05:16:00,75.9,68.2,30.07,ENE,74,0.0,8.0,77,0.00,,,0.00,Wunderground v.1.13,2013-05-25 09:16:00,
2013-05-25 05:22:00,75.9,68.2,30.06,ENE,59,0.0,8.0,77,0.00,,,0.00,Wunderground v.1.13,2013-05-25 09:22:00,
2013-05-25 05:28:00,75.9,68.2,30.07,ENE,76,3.0,8.0,77,0.00,,,0.00,Wunderground v.1.13,2013-05-25 09:28:00,
2013-05-25 05:34:00,76.0,68.3,30.07,NE,56,5.0,8.0,77,0.00,,,0.00,Wunderground v.1.13,2013-05-25 09:34:00,
2013-05-25 05:40:00,75.9,68.2,30.07,East,83,5.0,8.0,77,0.00,,,0.00,Wunderground v.1.13,2013-05-25 09:40:00,
2013-05-25 05:46:00,75.8,68.1,30.07,ENE,75,4.0,9.0,77,0.00,,,0.00,Wunderground v.1.13,2013-05-25 09:46:00,
2013-05-25 05:52:00,75.7,68.4,30.07,East,79,2.0,8.0,78,0.00,,,0.00,Wunderground v.1.13,2013-05-25 09:52:00,
2013-05-25 05:58:00,75.6,68.3,30.07,NE,55,2.0,8.0,78,0.00,,,0.00,Wunderground v.1.13,2013-05-25 09:58:00,
2013-05-25 06:04:00,75.6,68.3,30.07,ENE,64,2.0,8.0,78,0.00,,,0.00,Wunderground v.1.13,2013-05-25 10:04:00,
2013-05-25 06:10:00,75.4,68.4,30.08,ENE,63,0.0,6.0,79,0.00,,,0.00,Wunderground v.1.13,2013-05-25 10:10:00,
2013-05-25 06:16:00,75.3,68.3,30.08,ENE,71,0.0,11.0,79,0.00,,,0.00,Wunderground v.1.13,2013-05-25 10:16:00,
2013-05-25 06:22:00,75.2,68.2,30.08,ENE,61,0.0,11.0,79,0.00,,,0.00,Wunderground v.1.13,2013-05-25 10:22:00,
2013-05-25 06:28:00,75.1,68.1,30.09,East,79,1.0,11.0,79,0.00,,,0.00,Wunderground v.1.13,2013-05-25 10:28:00,
2013-05-25 06:34:00,75.0,68.4,30.09,East,84,1.0,11.0,80,0.00,,,0.00,Wunderground v.1.13,2013-05-25 10:34:00,
2013-05-25 06:40:00,74.9,68.3,30.09,East,99,3.0,11.0,80,0.00,,,0.00,Wunderground v.1.13,2013-05-25 10:40:00,
2013-05-25 06:46:00,74.8,68.2,30.09,ENE,76,3.0,11.0,80,0.00,,,0.00,Wunderground v.1.13,2013-05-25 10:46:00,
2013-05-25 06:52:00,74.8,68.2,30.10,ENE,69,1.0,11.0,80,0.00,,,0.00,Wunderground v.1.13,2013-05-25 10:52:00,
2013-05-25 06:58:00,74.9,68.7,30.09,ENE,69,2.0,11.0,81,0.00,,,0.00,Wunderground v.1.13,2013-05-25 10:58:00,
2013-05-25 07:04:00,74.8,68.9,30.10,ENE,65,3.0,11.0,82,0.00,,,0.00,Wunderground v.1.13,2013-05-25 11:04:00,
2013-05-25 07:10:00,74.8,68.9,30.10,ENE,64,3.0,5.0,82,0.00,,,0.00,Wunderground v.1.13,2013-05-25 11:10:00,
2013-05-25 07:16:00,74.9,69.4,30.11,East,91,3.0,9.0,83,0.00,,,0.00,Wunderground v.1.13,2013-05-25 11:16:00,
2013-05-25 07:22:00,75.0,69.5,30.11,ENE,63,3.0,9.0,83,0.00,,,0.00,Wunderground v.1.13,2013-05-25 11:22:00,
2013-05-25 07:28:00,75.2,69.3,30.11,ENE,59,6.0,11.0,82,0.00,,,0.00,Wunderground v.1.13,2013-05-25 11:28:00,
2013-05-25 07:34:00,75.4,69.9,30.11,ENE,76,6.0,9.0,83,0.00,,,0.00,Wunderground v.1.13,2013-05-25 11:34:00,
2013-05-25 07:40:00,75.6,69.7,30.12,ENE,63,2.0,9.0,82,0.00,,,0.00,Wunderground v.1.13,2013-05-25 11:40:00,
2013-05-25 07:46:00,75.7,69.8,30.12,ENE,72,3.0,10.0,82,0.00,,,0.00,Wunderground v.1.13,2013-05-25 11:46:00,
2013-05-25 07:52:00,75.9,70.0,30.12,ENE,74,3.0,9.0,82,0.00,,,0.00,Wunderground v.1.13,2013-05-25 11:52:00,
2013-05-25 07:58:00,76.2,69.9,30.12,ENE,61,2.0,12.0,81,0.00,,,0.00,Wunderground v.1.13,2013-05-25 11:58:00,
2013-05-25 08:04:00,76.4,70.1,30.12,ENE,77,4.0,9.0,81,0.00,,,0.00,Wunderground v.1.13,2013-05-25 12:04:00,
2013-05-25 08:10:00,76.5,70.2,30.12,ENE,78,6.0,6.0,81,0.00,,,0.00,Wunderground v.1.13,2013-05-25 12:10:00,
2013-05-25 08:16:00,76.7,70.4,30.12,ENE,75,4.0,12.0,81,0.00,,,0.00,Wunderground v.1.13,2013-05-25 12:16:00,
2013-05-25 08:22:00,76.9,69.9,30.13,East,82,4.0,12.0,79,0.00,,,0.00,Wunderground v.1.13,2013-05-25 12:22:00,
2013-05-25 08:28:00,77.1,70.1,30.13,ENE,71,6.0,12.0,79,0.00,,,0.00,Wunderground v.1.13,2013-05-25 12:28:00,
2013-05-25 08:34:00,77.3,70.3,30.13,ENE,69,5.0,12.0,79,0.00,,,0.00,Wunderground v.1.13,2013-05-25 12:34:00,
2013-05-25 08:40:00,77.5,70.1,30.13,ENE,76,7.0,12.0,78,0.00,,,0.00,Wunderground v.1.13,2013-05-25 12:40:00,
2013-05-25 08:46:00,77.8,70.8,30.13,ENE,63,6.0,12.0,79,0.00,,,0.00,Wunderground v.1.13,2013-05-25 12:46:00,
2013-05-25 08:52:00,78.4,70.6,30.14,ENE,68,6.0,12.0,77,0.00,,,0.00,Wunderground v.1.13,2013-05-25 12:52:00,
2013-05-25 08:58:00,79.0,70.4,30.14,ENE,69,6.0,12.0,75,0.00,,,0.00,Wunderground v.1.13,2013-05-25 12:58:00,
2013-05-25 09:04:00,79.4,70.0,30.14,ENE,59,6.0,12.0,73,0.00,,,0.00,Wunderground v.1.13,2013-05-25 13:04:00,
2013-05-25 09:10:00,79.8,70.0,30.14,ENE,60,6.0,6.0,72,0.00,,,0.00,Wunderground v.1.13,2013-05-25 13:10:00,
2013-05-25 09:16:00,79.9,69.2,30.15,ENE,71,7.0,7.0,70,0.00,,,0.00,Wunderground v.1.13,2013-05-25 13:16:00,
2013-05-25 09:22:00,80.2,69.5,30.15,East,80,6.0,12.0,70,0.00,,,0.00,Wunderground v.1.13,2013-05-25 13:22:00,
2013-05-25 09:28:00,80.2,69.1,30.15,ENE,64,5.0,12.0,69,0.00,,,0.00,Wunderground v.1.13,2013-05-25 13:28:00,
2013-05-25 09:34:00,80.4,69.3,30.15,ENE,66,5.0,12.0,69,0.00,,,0.00,Wunderground v.1.13,2013-05-25 13:34:00,
2013-05-25 09:40:00,80.9,69.8,30.15,East,84,5.0,12.0,69,0.00,,,0.00,Wunderground v.1.13,2013-05-25 13:40:00,
2013-05-25 09:46:00,81.1,69.1,30.15,NE,56,5.0,12.0,67,0.00,,,0.00,Wunderground v.1.13,2013-05-25 13:46:00,
2013-05-25 09:52:00,81.3,68.4,30.15,East,88,4.0,12.0,65,0.00,,,0.00,Wunderground v.1.13,2013-05-25 13:52:00,
2013-05-25 09:58:00,81.9,68.5,30.15,East,90,3.0,12.0,64,0.00,,,0.00,Wunderground v.1.13,2013-05-25 13:58:00,
2013-05-25 10:04:00,82.2,68.3,30.16,ESE,103,2.0,12.0,63,0.00,,,0.00,Wunderground v.1.13,2013-05-25 14:04:00,
2013-05-25 10:10:00,82.3,67.0,30.16,ENE,59,4.0,13.0,60,0.00,,,0.00,Wunderground v.1.13,2013-05-25 14:10:00,
2013-05-25 10:16:00,82.2,67.4,30.15,NE,53,6.0,13.0,61,0.00,,,0.00,Wunderground v.1.13,2013-05-25 14:16:00,
2013-05-25 10:22:00,82.4,67.1,30.16,ENE,67,6.0,14.0,60,0.00,,,0.00,Wunderground v.1.13,2013-05-25 14:22:00,
2013-05-25 10:28:00,82.5,66.7,30.16,ESE,116,5.0,14.0,59,0.00,,,0.00,Wunderground v.1.13,2013-05-25 14:28:00,
2013-05-25 10:34:00,82.7,66.9,30.16,East,83,4.0,14.0,59,0.00,,,0.00,Wunderground v.1.13,2013-05-25 14:34:00,
2013-05-25 10:40:00,82.9,67.1,30.16,East,95,5.0,14.0,59,0.00,,,0.00,Wunderground v.1.13,2013-05-25 14:40:00,
2013-05-25 10:46:00,83.4,67.1,30.16,ENE,74,4.0,14.0,58,0.00,,,0.00,Wunderground v.1.13,2013-05-25 14:46:00,
2013-05-25 10:52:00,83.0,67.2,30.16,East,88,6.0,14.0,59,0.00,,,0.00,Wunderground v.1.13,2013-05-25 14:52:00,
2013-05-25 10:58:00,83.5,67.2,30.16,East,99,5.0,14.0,58,0.00,,,0.00,Wunderground v.1.13,2013-05-25 14:58:00,
2013-05-25 11:04:00,84.0,67.1,30.17,East,80,4.0,14.0,57,0.00,,,0.00,Wunderground v.1.13,2013-05-25 15:04:00,
2013-05-25 11:10:00,84.1,66.7,30.17,East,98,5.0,6.0,56,0.00,,,0.00,Wunderground v.1.13,2013-05-25 15:10:00,
2013-05-25 11:16:00,84.3,66.9,30.17,East,80,5.0,13.0,56,0.00,,,0.00,Wunderground v.1.13,2013-05-25 15:16:00,
2013-05-25 11:22:00,84.3,66.4,30.17,NE,49,6.0,13.0,55,0.00,,,0.00,Wunderground v.1.13,2013-05-25 15:22:00,
2013-05-25 11:28:00,84.4,67.0,30.17,ENE,64,6.0,13.0,56,0.00,,,0.00,Wunderground v.1.13,2013-05-25 15:28:00,
2013-05-25 11:34:00,84.3,66.4,30.17,ENE,68,6.0,13.0,55,0.00,,,0.00,Wunderground v.1.13,2013-05-25 15:34:00,
2013-05-25 11:40:00,84.6,66.1,30.17,East,96,6.0,13.0,54,0.00,,,0.00,Wunderground v.1.13,2013-05-25 15:40:00,
2013-05-25 11:46:00,84.8,65.2,30.17,East,92,4.0,13.0,52,0.00,,,0.00,Wunderground v.1.13,2013-05-25 15:46:00,
2013-05-25 11:52:00,85.3,64.6,30.17,East,83,5.0,13.0,50,0.00,,,0.00,Wunderground v.1.13,2013-05-25 15:52:00,
2013-05-25 11:58:00,85.1,64.9,30.17,ENE,65,5.0,13.0,51,0.00,,,0.00,Wunderground v.1.13,2013-05-25 15:58:00,
2013-05-25 12:04:00,85.0,64.8,30.17,East,83,7.0,13.0,51,0.00,,,0.00,Wunderground v.1.13,2013-05-25 16:04:00,
2013-05-25 12:10:00,85.3,65.7,30.17,East,80,6.0,7.0,52,0.00,,,0.00,Wunderground v.1.13,2013-05-25 16:10:00,
2013-05-25 12:16:00,85.4,64.6,30.17,ENE,67,5.0,14.0,50,0.00,,,0.00,Wunderground v.1.13,2013-05-25 16:16:00,
2013-05-25 12:22:00,85.5,65.3,30.17,ENE,65,3.0,14.0,51,0.00,,,0.00,Wunderground v.1.13,2013-05-25 16:22:00,
2013-05-25 12:28:00,85.6,65.4,30.17,ENE,69,4.0,14.0,51,0.00,,,0.00,Wunderground v.1.13,2013-05-25 16:28:00,
2013-05-25 12:34:00,86.2,65.4,30.17,NE,53,5.0,14.0,50,0.00,,,0.00,Wunderground v.1.13,2013-05-25 16:34:00,
2013-05-25 12:40:00,86.3,64.3,30.17,ENE,59,6.0,14.0,48,0.00,,,0.00,Wunderground v.1.13,2013-05-25 16:40:00,
2013-05-25 12:46:00,86.2,64.2,30.17,ENE,65,5.0,14.0,48,0.00,,,0.00,Wunderground v.1.13,2013-05-25 16:46:00,
2013-05-25 12:52:00,86.2,64.2,30.17,East,86,6.0,14.0,48,0.00,,,0.00,Wunderground v.1.13,2013-05-25 16:52:00,
2013-05-25 12:58:00,86.5,64.5,30.17,ENE,67,6.0,14.0,48,0.00,,,0.00,Wunderground v.1.13,2013-05-25 16:58:00,
2013-05-25 13:04:00,86.4,63.8,30.17,East,90,5.0,14.0,47,0.00,,,0.00,Wunderground v.1.13,2013-05-25 17:04:00,
2013-05-25 13:10:00,86.3,64.3,30.16,East,86,5.0,7.0,48,0.00,,,0.00,Wunderground v.1.13,2013-05-25 17:10:00,
2013-05-25 13:16:00,86.6,64.6,30.16,ENE,67,4.0,12.0,48,0.00,,,0.00,Wunderground v.1.13,2013-05-25 17:16:00,
2013-05-25 13:22:00,86.7,65.3,30.16,East,94,4.0,12.0,49,0.00,,,0.00,Wunderground v.1.13,2013-05-25 17:22:00,
2013-05-25 13:28:00,87.0,64.9,30.15,East,83,3.0,12.0,48,0.00,,,0.00,Wunderground v.1.13,2013-05-25 17:28:00,
2013-05-25 13:34:00,87.4,64.1,30.15,ENE,60,3.0,12.0,46,0.00,,,0.00,Wunderground v.1.13,2013-05-25 17:34:00,
2013-05-25 13:40:00,87.5,64.8,30.15,ENE,65,5.0,12.0,47,0.00,,,0.00,Wunderground v.1.13,2013-05-25 17:40:00,
2013-05-25 13:46:00,87.1,65.0,30.15,East,101,5.0,12.0,48,0.00,,,0.00,Wunderground v.1.13,2013-05-25 17:46:00,
2013-05-25 13:52:00,87.3,65.2,30.15,ENE,64,5.0,12.0,48,0.00,,,0.00,Wunderground v.1.13,2013-05-25 17:52:00,
2013-05-25 13:58:00,87.4,65.3,30.15,East,80,4.0,12.0,48,0.00,,,0.00,Wunderground v.1.13,2013-05-25 17:58:00,
2013-05-25 14:04:00,87.5,64.8,30.14,SE,129,4.0,12.0,47,0.00,,,0.00,Wunderground v.1.13,2013-05-25 18:04:00,
2013-05-25 14:10:00,87.2,65.1,30.15,NE,55,4.0,9.0,48,0.00,,,0.00,Wunderground v.1.13,2013-05-25 18:10:00,
2013-05-25 14:16:00,87.1,65.0,30.14,ENE,69,3.0,13.0,48,0.00,,,0.00,Wunderground v.1.13,2013-05-25 18:16:00,
2013-05-25 14:22:00,87.4,65.3,30.14,ENE,64,2.0,13.0,48,0.00,,,0.00,Wunderground v.1.13,2013-05-25 18:22:00,
2013-05-25 14:28:00,87.9,65.2,30.14,ENE,59,1.0,13.0,47,0.00,,,0.00,Wunderground v.1.13,2013-05-25 18:28:00,
2013-05-25 14:34:00,87.7,65.0,30.14,NE,56,2.0,13.0,47,0.00,,,0.00,Wunderground v.1.13,2013-05-25 18:34:00,
2013-05-25 14:40:00,87.5,65.4,30.14,East,86,2.0,13.0,48,0.00,,,0.00,Wunderground v.1.13,2013-05-25 18:40:00,
2013-05-25 14:46:00,87.5,64.8,30.13,ENE,78,3.0,13.0,47,0.00,,,0.00,Wunderground v.1.13,2013-05-25 18:46:00,
2013-05-25 14:52:00,88.3,64.9,30.13,ENE,63,2.0,13.0,46,0.00,,,0.00,Wunderground v.1.13,2013-05-25 18:52:00,
2013-05-25 14:58:00,88.5,64.4,30.13,ENE,61,1.0,13.0,45,0.00,,,0.00,Wunderground v.1.13,2013-05-25 18:58:00,
2013-05-25 15:04:00,88.3,63.6,30.13,ENE,61,1.0,13.0,44,0.00,,,0.00,Wunderground v.1.13,2013-05-25 19:04:00,
2013-05-25 15:10:00,88.2,64.2,30.12,ENE,74,1.0,1.0,45,0.00,,,0.00,Wunderground v.1.13,2013-05-25 19:10:00,
2013-05-25 15:16:00,88.4,65.0,30.12,ENE,67,1.0,13.0,46,0.00,,,0.00,Wunderground v.1.13,2013-05-25 19:16:00,
2013-05-25 15:22:00,88.5,64.4,30.12,ENE,59,1.0,13.0,45,0.00,,,0.00,Wunderground v.1.13,2013-05-25 19:22:00,
2013-05-25 15:28:00,88.6,64.5,30.12,ENE,72,1.0,13.0,45,0.00,,,0.00,Wunderground v.1.13,2013-05-25 19:28:00,
2013-05-25 15:34:00,88.7,65.3,30.12,NE,49,1.0,13.0,46,0.00,,,0.00,Wunderground v.1.13,2013-05-25 19:34:00,
2013-05-25 15:40:00,88.7,65.3,30.12,ESE,114,1.0,13.0,46,0.00,,,0.00,Wunderground v.1.13,2013-05-25 19:40:00,
2013-05-25 15:46:00,88.7,64.6,30.12,ENE,68,1.0,13.0,45,0.00,,,0.00,Wunderground v.1.13,2013-05-25 19:46:00,
2013-05-25 15:52:00,88.9,65.4,30.11,ENE,76,2.0,13.0,46,0.00,,,0.00,Wunderground v.1.13,2013-05-25 19:52:00,
2013-05-25 15:58:00,88.9,64.8,30.11,East,86,2.0,13.0,45,0.00,,,0.00,Wunderground v.1.13,2013-05-25 19:58:00,
2013-05-25 16:04:00,88.9,64.8,30.11,ESE,104,1.0,13.0,45,0.00,,,0.00,Wunderground v.1.13,2013-05-25 20:04:00,
2013-05-25 16:10:00,88.6,63.9,30.11,ENE,61,0.0,1.0,44,0.00,,,0.00,Wunderground v.1.13,2013-05-25 20:10:00,
2013-05-25 16:16:00,88.8,64.7,30.10,NNE,26,0.0,14.0,45,0.00,,,0.00,Wunderground v.1.13,2013-05-25 20:16:00,
2013-05-25 16:22:00,88.6,63.9,30.10,ENE,59,2.0,14.0,44,0.00,,,0.00,Wunderground v.1.13,2013-05-25 20:22:00,
2013-05-25 16:28:00,88.8,64.1,30.10,ENE,69,1.0,14.0,44,0.00,,,0.00,Wunderground v.1.13,2013-05-25 20:28:00,
2013-05-25 16:34:00,88.7,63.3,30.10,NNE,30,0.0,14.0,43,0.00,,,0.00,Wunderground v.1.13,2013-05-25 20:34:00,
2013-05-25 16:40:00,88.6,63.2,30.10,ENE,65,0.0,14.0,43,0.00,,,0.00,Wunderground v.1.13,2013-05-25 20:40:00,
2013-05-25 16:46:00,88.9,63.5,30.10,ENE,78,0.0,14.0,43,0.00,,,0.00,Wunderground v.1.13,2013-05-25 20:46:00,
2013-05-25 16:52:00,89.1,63.0,30.10,ESE,121,0.0,14.0,42,0.00,,,0.00,Wunderground v.1.13,2013-05-25 20:52:00,
2013-05-25 16:58:00,89.4,63.3,30.09,ESE,111,0.0,14.0,42,0.00,,,0.00,Wunderground v.1.13,2013-05-25 20:58:00,
2013-05-25 17:04:00,89.1,63.0,30.09,ENE,78,0.0,14.0,42,0.00,,,0.00,Wunderground v.1.13,2013-05-25 21:04:00,
2013-05-25 17:10:00,89.2,63.8,30.09,NNE,28,0.0,0.0,43,0.00,,,0.00,Wunderground v.1.13,2013-05-25 21:10:00,
2013-05-25 17:16:00,89.1,63.0,30.10,ENE,61,0.0,0.0,42,0.00,,,0.00,Wunderground v.1.13,2013-05-25 21:16:00,
2013-05-25 17:22:00,89.3,63.2,30.09,SE,142,0.0,0.0,42,0.00,,,0.00,Wunderground v.1.13,2013-05-25 21:22:00,
2013-05-25 17:28:00,89.5,63.4,30.09,East,96,0.0,0.0,42,0.00,,,0.00,Wunderground v.1.13,2013-05-25 21:28:00,
2013-05-25 17:34:00,89.2,63.8,30.08,ENE,71,0.0,1.0,43,0.00,,,0.00,Wunderground v.1.13,2013-05-25 21:34:00,
2013-05-25 17:40:00,89.1,63.7,30.09,ENE,72,1.0,2.0,43,0.00,,,0.00,Wunderground v.1.13,2013-05-25 21:40:00,
2013-05-25 17:46:00,89.0,63.6,30.08,East,84,0.0,0.0,43,0.00,,,0.00,Wunderground v.1.13,2013-05-25 21:46:00,
2013-05-25 17:52:00,88.8,64.1,30.09,ENE,65,0.0,0.0,44,0.00,,,0.00,Wunderground v.1.13,2013-05-25 21:52:00,
2013-05-25 17:58:00,89.1,63.0,30.08,ENE,72,0.0,0.0,42,0.00,,,0.00,Wunderground v.1.13,2013-05-25 21:58:00,
2013-05-25 18:04:00,89.0,62.9,30.09,East,96,0.0,0.0,42,0.00,,,0.00,Wunderground v.1.13,2013-05-25 22:04:00,
2013-05-25 18:10:00,89.1,63.7,30.08,ENE,69,0.0,0.0,43,0.00,,,0.00,Wunderground v.1.13,2013-05-25 22:10:00,
2013-05-25 18:16:00,89.3,63.9,30.08,ENE,71,0.0,4.0,43,0.00,,,0.00,Wunderground v.1.13,2013-05-25 22:16:00,
2013-05-25 18:22:00,89.3,62.5,30.09,ENE,74,0.0,4.0,41,0.00,,,0.00,Wunderground v.1.13,2013-05-25 22:22:00,
2013-05-25 18:28:00,89.4,62.6,30.08,ENE,72,0.0,4.0,41,0.00,,,0.00,Wunderground v.1.13,2013-05-25 22:28:00,
2013-05-25 18:34:00,89.2,63.1,30.09,East,90,0.0,4.0,42,0.00,,,0.00,Wunderground v.1.13,2013-05-25 22:34:00,
2013-05-25 18:40:00,88.8,63.4,30.09,East,82,0.0,4.0,43,0.00,,,0.00,Wunderground v.1.13,2013-05-25 22:40:00,
2013-05-25 18:46:00,88.6,65.2,30.09,ENE,67,0.0,4.0,46,0.00,,,0.00,Wunderground v.1.13,2013-05-25 22:46:00,
2013-05-25 18:52:00,88.7,64.0,30.09,ESE,103,2.0,6.0,44,0.00,,,0.00,Wunderground v.1.13,2013-05-25 22:52:00,
2013-05-25 18:58:00,88.7,64.6,30.09,ESE,111,2.0,4.0,45,0.00,,,0.00,Wunderground v.1.13,2013-05-25 22:58:00,
2013-05-25 19:04:00,88.5,65.7,30.09,ENE,65,2.0,10.0,47,0.00,,,0.00,Wunderground v.1.13,2013-05-25 23:04:00,
2013-05-25 19:10:00,88.0,67.6,30.09,ENE,65,1.0,2.0,51,0.00,,,0.00,Wunderground v.1.13,2013-05-25 23:10:00,
2013-05-25 19:16:00,87.5,66.0,30.09,ENE,71,1.0,11.0,49,0.00,,,0.00,Wunderground v.1.13,2013-05-25 23:16:00,
2013-05-25 19:22:00,87.1,66.8,30.09,ENE,73,2.0,11.0,51,0.00,,,0.00,Wunderground v.1.13,2013-05-25 23:22:00,
2013-05-25 19:28:00,86.6,66.9,30.09,ENE,69,3.0,11.0,52,0.00,,,0.00,Wunderground v.1.13,2013-05-25 23:28:00,
2013-05-25 19:34:00,86.3,67.2,30.09,ENE,71,3.0,5.0,53,0.00,,,0.00,Wunderground v.1.13,2013-05-25 23:34:00,
2013-05-25 19:40:00,86.1,66.4,30.09,ENE,67,3.0,5.0,52,0.00,,,0.00,Wunderground v.1.13,2013-05-25 23:40:00,
2013-05-25 19:46:00,86.1,67.0,30.10,NE,55,3.0,11.0,53,0.00,,,0.00,Wunderground v.1.13,2013-05-25 23:46:00,
2013-05-25 19:52:00,85.9,67.3,30.09,ENE,74,3.0,11.0,54,0.00,,,0.00,Wunderground v.1.13,2013-05-25 23:52:00,
2013-05-25 19:58:00,85.6,68.1,30.10,ESE,105,4.0,11.0,56,0.00,,,0.00,Wunderground v.1.13,2013-05-25 23:58:00,
2013-05-25 20:04:00,85.4,66.9,30.10,ENE,69,4.0,11.0,54,0.00,,,0.00,Wunderground v.1.13,2013-05-26 00:04:00,
2013-05-25 20:10:00,85.2,67.7,30.10,ENE,76,4.0,5.0,56,0.00,,,0.00,Wunderground v.1.13,2013-05-26 00:10:00,
2013-05-25 20:16:00,85.0,68.1,30.10,ENE,71,6.0,12.0,57,0.00,,,0.00,Wunderground v.1.13,2013-05-26 00:16:00,
2013-05-25 20:22:00,84.7,66.7,30.11,NE,50,5.0,12.0,55,0.00,,,0.00,Wunderground v.1.13,2013-05-26 00:22:00,
2013-05-25 20:28:00,84.5,66.6,30.10,ENE,73,5.0,12.0,55,0.00,,,0.00,Wunderground v.1.13,2013-05-26 00:28:00,
2013-05-25 20:34:00,84.4,66.5,30.11,NE,54,5.0,12.0,55,0.00,,,0.00,Wunderground v.1.13,2013-05-26 00:34:00,
2013-05-25 20:40:00,84.1,67.7,30.11,ENE,78,7.0,12.0,58,0.00,,,0.00,Wunderground v.1.13,2013-05-26 00:40:00,
2013-05-25 20:46:00,83.7,67.8,30.11,ENE,71,8.0,12.0,59,0.00,,,0.00,Wunderground v.1.13,2013-05-26 00:46:00,
2013-05-25 20:52:00,83.5,67.7,30.11,East,80,8.0,12.0,59,0.00,,,0.00,Wunderground v.1.13,2013-05-26 00:52:00,
2013-05-25 20:58:00,83.3,68.0,30.11,ENE,69,6.0,12.0,60,0.00,,,0.00,Wunderground v.1.13,2013-05-26 00:58:00,
2013-05-25 21:04:00,83.1,67.8,30.11,East,92,2.0,12.0,60,0.00,,,0.00,Wunderground v.1.13,2013-05-26 01:04:00,
2013-05-25 21:10:00,82.8,67.5,30.11,East,98,1.0,2.0,60,0.00,,,0.00,Wunderground v.1.13,2013-05-26 01:10:00,
2013-05-25 21:16:00,82.5,67.7,30.12,ENE,78,1.0,13.0,61,0.00,,,0.00,Wunderground v.1.13,2013-05-26 01:16:00,
2013-05-25 21:22:00,82.1,67.3,30.12,East,81,2.0,13.0,61,0.00,,,0.00,Wunderground v.1.13,2013-05-26 01:22:00,
2013-05-25 21:28:00,81.8,67.0,30.12,ENE,69,3.0,13.0,61,0.00,,,0.00,Wunderground v.1.13,2013-05-26 01:28:00,
2013-05-25 21:34:00,81.5,66.8,30.12,SE,132,4.0,13.0,61,0.00,,,0.00,Wunderground v.1.13,2013-05-26 01:34:00,
2013-05-25 21:40:00,81.3,67.0,30.13,ESE,105,3.0,13.0,62,0.00,,,0.00,Wunderground v.1.13,2013-05-26 01:40:00,
2013-05-25 21:46:00,81.1,66.8,30.13,ENE,71,2.0,6.0,62,0.00,,,0.00,Wunderground v.1.13,2013-05-26 01:46:00,
2013-05-25 21:52:00,80.8,67.0,30.13,ESE,118,2.0,13.0,63,0.00,,,0.00,Wunderground v.1.13,2013-05-26 01:52:00,
2013-05-25 21:58:00,80.7,66.5,30.14,East,82,1.0,13.0,62,0.00,,,0.00,Wunderground v.1.13,2013-05-26 01:58:00,
2013-05-25 22:04:00,80.5,66.3,30.13,East,96,2.0,13.0,62,0.00,,,0.00,Wunderground v.1.13,2013-05-26 02:04:00,
2013-05-25 22:10:00,80.2,66.9,30.14,ENE,68,1.0,6.0,64,0.00,,,0.00,Wunderground v.1.13,2013-05-26 02:10:00,
2013-05-25 22:16:00,80.0,66.7,30.14,ENE,74,2.0,5.0,64,0.00,,,0.00,Wunderground v.1.13,2013-05-26 02:16:00,
2013-05-25 22:22:00,79.8,67.0,30.15,ENE,65,2.0,12.0,65,0.00,,,0.00,Wunderground v.1.13,2013-05-26 02:22:00,
2013-05-25 22:28:00,79.3,66.5,30.15,East,84,3.0,12.0,65,0.00,,,0.00,Wunderground v.1.13,2013-05-26 02:28:00,
2013-05-25 22:34:00,79.0,66.2,30.15,ENE,61,4.0,12.0,65,0.00,,,0.00,Wunderground v.1.13,2013-05-26 02:34:00,
2013-05-25 22:40:00,78.7,66.4,30.15,ENE,77,7.0,12.0,66,0.00,,,0.00,Wunderground v.1.13,2013-05-26 02:40:00,
2013-05-25 22:46:00,78.5,66.2,30.15,ENE,68,6.0,13.0,66,0.00,,,0.00,Wunderground v.1.13,2013-05-26 02:46:00,
2013-05-25 22:52:00,78.3,66.4,30.15,ENE,73,4.0,12.0,67,0.00,,,0.00,Wunderground v.1.13,2013-05-26 02:52:00,
2013-05-25 22:58:00,78.0,66.2,30.16,ENE,64,5.0,12.0,67,0.00,,,0.00,Wunderground v.1.13,2013-05-26 02:58:00,
2013-05-25 23:04:00,77.8,66.0,30.16,NE,51,6.0,12.0,67,0.00,,,0.00,Wunderground v.1.13,2013-05-26 03:04:00,
2013-05-25 23:10:00,77.7,66.3,30.16,NE,56,6.0,9.0,68,0.00,,,0.00,Wunderground v.1.13,2013-05-26 03:10:00,
2013-05-25 23:16:00,77.5,66.1,30.16,ENE,75,5.0,13.0,68,0.00,,,0.00,Wunderground v.1.13,2013-05-26 03:16:00,
2013-05-25 23:22:00,77.4,66.0,30.16,ESE,109,2.0,13.0,68,0.00,,,0.00,Wunderground v.1.13,2013-05-26 03:22:00,
2013-05-25 23:28:00,77.3,65.5,30.17,ESE,110,1.0,13.0,67,0.00,,,0.00,Wunderground v.1.13,2013-05-26 03:28:00,
2013-05-25 23:34:00,77.1,65.3,30.17,ENE,72,3.0,13.0,67,0.00,,,0.00,Wunderground v.1.13,2013-05-26 03:34:00,
2013-05-25 23:40:00,76.9,65.1,30.17,ENE,69,2.0,13.0,67,0.00,,,0.00,Wunderground v.1.13,2013-05-26 03:40:00,
2013-05-25 23:46:00,76.7,64.9,30.17,ENE,69,3.0,13.0,67,0.00,,,0.00,Wunderground v.1.13,2013-05-26 03:46:00,
2013-05-25 23:52:00,76.6,64.8,30.17,ENE,58,2.0,13.0,67,0.00,,,0.00,Wunderground v.1.13,2013-05-26 03:52:00,
2013-05-25 23:58:00,76.4,65.1,30.18,East,87,1.0,13.0,68,0.00,,,0.00,Wunderground v.1.13,2013-05-26 03:58:00,